PWSweather.com
Personal Weather Stations
Station Observations
OZIERI
Punta Idda, OzieriIT

Punta IddaOzieriIT

Lat: 40.584142, Lon: 9.007657999999992

Elevation: 1483

Station Type: Lacrosse ws2350

Latest ConditionsUpdated 8:50:42 AM GMT+01:01 Wednesday, Jun 20, 2018
Currently Today's Max Today's Min Today's Average
Temperature 70.9°F21.6°C 72.5°F22.5°C 64.6°F18.1°C 67.3°F19.6°C
Dew Point 58.1°F14.5°C 59.4°F15.2°C 52.7°F11.5°C 54.8°F12.7°C
Winds 1.6 mph 2.6 kmh 6.3 mph -10.1 kmh - - 3.1 mph 5.0 kmh
Wind Gusts 2.2 mph3.5 kmh 8.3 mph13.4 kmh - -
Humidity 64% 68% 60% 64%
Pressure 30.10 in1019.3 mb 30.11 in1019.6 mb 30.09 in1019.0 mb -
Hour Temp Dew Point Humidity Winds Wind Gusts Pressure Precip Precip Rate Daily Precip Total
08:50 AM 70.9°F21.6°C 58.1°F14.5°C 64% 1.6 mph 2.6 kmh 2.2 mph3.5 kmh 30.10 in1019.3 mb 0.00 in0.0 mm 0.00 in0.0 mm 0.00 in0.0 mm
08:48 AM 70.9°F21.6°C 58.1°F14.5°C 64% 1.8 mph 2.9 kmh 3.6 mph5.8 kmh 30.10 in1019.3 mb 0.00 in0.0 mm 0.00 in0.0 mm 0.00 in0.0 mm
08:46 AM 70.9°F21.6°C 58.1°F14.5°C 64% 1.6 mph NNW2.6 kmh NNW 2.9 mph4.7 kmh 30.11 in1019.6 mb 0.00 in0.0 mm 0.00 in0.0 mm 0.00 in0.0 mm
08:44 AM 71.1°F21.7°C 58.3°F14.6°C 64% 1.1 mph 1.8 kmh 2.7 mph4.3 kmh 30.11 in1019.6 mb 0.00 in0.0 mm 0.00 in0.0 mm 0.00 in0.0 mm
08:41 AM 70.9°F21.6°C 58.1°F14.5°C 64% 0.9 mph NNW1.4 kmh NNW 3.1 mph5.0 kmh 30.11 in1019.6 mb 0.00 in0.0 mm 0.00 in0.0 mm 0.00 in0.0 mm
08:39 AM 71.2°F21.8°C 59.4°F15.2°C 66% 0.7 mph NNW1.1 kmh NNW 2.5 mph4.0 kmh 30.11 in1019.6 mb 0.00 in0.0 mm 0.00 in0.0 mm 0.00 in0.0 mm
08:37 AM 71.2°F21.8°C 59.4°F15.2°C 66% 0.2 mph 0.3 kmh 0.7 mph1.1 kmh 30.11 in1019.6 mb 0.00 in0.0 mm 0.00 in0.0 mm 0.00 in0.0 mm
08:35 AM 70.9°F21.6°C 59.0°F15.0°C 66% 0.2 mph ENE0.3 kmh ENE -- 30.11 in1019.6 mb 0.00 in0.0 mm 0.00 in0.0 mm 0.00 in0.0 mm
08:33 AM 70.7°F21.5°C 59.2°F15.1°C 67% 0.2 mph E0.3 kmh E -- 30.11 in1019.6 mb 0.00 in0.0 mm 0.00 in0.0 mm 0.00 in0.0 mm
08:31 AM 70.5°F21.4°C 59.0°F15.0°C 67% 0.2 mph NE0.3 kmh NE -- 30.11 in1019.6 mb 0.00 in0.0 mm 0.00 in0.0 mm 0.00 in0.0 mm
08:29 AM 70.3°F21.3°C 58.8°F14.9°C 67% 0.2 mph WSW0.3 kmh WSW -- 30.11 in1019.6 mb 0.00 in0.0 mm 0.00 in0.0 mm 0.00 in0.0 mm
08:26 AM 70.3°F21.3°C 58.8°F14.9°C 67% 0.4 mph 0.6 kmh 1.3 mph2.1 kmh 30.11 in1019.6 mb 0.00 in0.0 mm 0.00 in0.0 mm 0.00 in0.0 mm
08:24 AM 70.2°F21.2°C 58.6°F14.8°C 67% 0.7 mph NNW1.1 kmh NNW 2.2 mph3.5 kmh 30.11 in1019.6 mb 0.00 in0.0 mm 0.00 in0.0 mm 0.00 in0.0 mm
08:22 AM 70.0°F21.1°C 58.5°F14.7°C 67% 0.9 mph NW1.4 kmh NW 2.0 mph3.2 kmh 30.11 in1019.6 mb 0.00 in0.0 mm 0.00 in0.0 mm 0.00 in0.0 mm
08:20 AM 70.0°F21.1°C 58.5°F14.7°C 67% 1.1 mph NNW1.8 kmh NNW 1.8 mph2.9 kmh 30.11 in1019.6 mb 0.00 in0.0 mm 0.00 in0.0 mm 0.00 in0.0 mm
08:17 AM 70.0°F21.1°C 58.1°F14.5°C 66% 0.9 mph 1.4 kmh 2.5 mph4.0 kmh 30.11 in1019.6 mb 0.00 in0.0 mm 0.00 in0.0 mm 0.00 in0.0 mm
08:15 AM 70.2°F21.2°C 58.3°F14.6°C 66% 0.7 mph W1.1 kmh W -- 30.11 in1019.6 mb 0.00 in0.0 mm 0.00 in0.0 mm 0.00 in0.0 mm
08:13 AM 70.3°F21.3°C 58.5°F14.7°C 66% 1.6 mph 2.6 kmh 3.4 mph5.5 kmh 30.11 in1019.6 mb 0.00 in0.0 mm 0.00 in0.0 mm 0.00 in0.0 mm
08:11 AM 70.5°F21.4°C 58.6°F14.8°C 66% 1.1 mph 1.8 kmh 2.9 mph4.7 kmh 30.11 in1019.6 mb 0.00 in0.0 mm 0.00 in0.0 mm 0.00 in0.0 mm
08:09 AM 70.9°F21.6°C 58.5°F14.7°C 65% 0.9 mph 1.4 kmh 2.5 mph4.0 kmh 30.11 in1019.6 mb 0.00 in0.0 mm 0.00 in0.0 mm 0.00 in0.0 mm
08:07 AM 71.2°F21.8°C 58.8°F14.9°C 65% 0.4 mph 0.6 kmh 0.9 mph1.4 kmh 30.11 in1019.6 mb 0.00 in0.0 mm 0.00 in0.0 mm 0.00 in0.0 mm
08:04 AM 71.4°F21.9°C 59.0°F15.0°C 65% 0.4 mph W0.6 kmh W 0.7 mph1.1 kmh 30.11 in1019.6 mb 0.00 in0.0 mm 0.00 in0.0 mm 0.00 in0.0 mm
08:02 AM 71.6°F22.0°C 59.2°F15.1°C 65% 0.4 mph WSW0.6 kmh WSW 1.6 mph2.6 kmh 30.11 in1019.6 mb 0.00 in0.0 mm 0.00 in0.0 mm 0.00 in0.0 mm
08:00 AM 71.6°F22.0°C 59.2°F15.1°C 65% 0.2 mph NNW0.3 kmh NNW -- 30.11 in1019.6 mb 0.00 in0.0 mm 0.00 in0.0 mm 0.00 in0.0 mm
07:58 AM 71.4°F21.9°C 58.6°F14.8°C 64% 0.4 mph NNW0.6 kmh NNW 1.6 mph2.6 kmh 30.11 in1019.6 mb 0.00 in0.0 mm 0.00 in0.0 mm 0.00 in0.0 mm
07:55 AM 71.8°F22.1°C 59.0°F15.0°C 64% 0.2 mph NE0.3 kmh NE 1.3 mph2.1 kmh 30.11 in1019.6 mb 0.00 in0.0 mm 0.00 in0.0 mm 0.00 in0.0 mm
07:53 AM 71.8°F22.1°C 59.0°F15.0°C 64% 0.2 mph 0.3 kmh -- 30.11 in1019.6 mb 0.00 in0.0 mm 0.00 in0.0 mm 0.00 in0.0 mm
07:51 AM 71.8°F22.1°C 59.0°F15.0°C 64% 0.2 mph NNE0.3 kmh NNE -- 30.11 in1019.6 mb 0.00 in0.0 mm 0.00 in0.0 mm 0.00 in0.0 mm
07:49 AM 71.8°F22.1°C 58.5°F14.7°C 63% 0.2 mph E0.3 kmh E 1.3 mph2.1 kmh 30.11 in1019.6 mb 0.00 in0.0 mm 0.00 in0.0 mm 0.00 in0.0 mm
07:47 AM 71.8°F22.1°C 58.5°F14.7°C 63% 0.2 mph NNE0.3 kmh NNE -- 30.11 in1019.6 mb 0.00 in0.0 mm 0.00 in0.0 mm 0.00 in0.0 mm
07:45 AM 71.4°F21.9°C 58.1°F14.5°C 63% 0.2 mph NE0.3 kmh NE -- 30.11 in1019.6 mb 0.00 in0.0 mm 0.00 in0.0 mm 0.00 in0.0 mm
07:42 AM 71.8°F22.1°C 58.1°F14.5°C 62% 0.4 mph NNW0.6 kmh NNW 1.3 mph2.1 kmh 30.11 in1019.6 mb 0.00 in0.0 mm 0.00 in0.0 mm 0.00 in0.0 mm
07:40 AM 72.3°F22.4°C 58.6°F14.8°C 62% 0.4 mph 0.6 kmh 2.0 mph3.2 kmh 30.11 in1019.6 mb 0.00 in0.0 mm 0.00 in0.0 mm 0.00 in0.0 mm
07:38 AM 72.1°F22.3°C 57.9°F14.4°C 61% 0.4 mph NNW0.6 kmh NNW 0.9 mph1.4 kmh 30.11 in1019.6 mb 0.00 in0.0 mm 0.00 in0.0 mm 0.00 in0.0 mm
07:36 AM 72.3°F22.4°C 58.1°F14.5°C 61% 0.9 mph 1.4 kmh 1.6 mph2.6 kmh 30.10 in1019.3 mb 0.00 in0.0 mm 0.00 in0.0 mm 0.00 in0.0 mm
07:33 AM 72.5°F22.5°C 58.3°F14.6°C 61% 0.9 mph SSE1.4 kmh SSE 1.3 mph2.1 kmh 30.11 in1019.6 mb 0.00 in0.0 mm 0.00 in0.0 mm 0.00 in0.0 mm
07:31 AM 72.3°F22.4°C 58.1°F14.5°C 61% 1.1 mph NNE1.8 kmh NNE 2.2 mph3.5 kmh 30.11 in1019.6 mb 0.00 in0.0 mm 0.00 in0.0 mm 0.00 in0.0 mm
07:29 AM 72.3°F22.4°C 58.1°F14.5°C 61% 1.6 mph ESE2.6 kmh ESE 2.0 mph3.2 kmh 30.11 in1019.6 mb 0.00 in0.0 mm 0.00 in0.0 mm 0.00 in0.0 mm
07:27 AM 72.1°F22.3°C 57.9°F14.4°C 61% 2.5 mph ENE4.0 kmh ENE 4.3 mph6.9 kmh 30.11 in1019.6 mb 0.00 in0.0 mm 0.00 in0.0 mm 0.00 in0.0 mm
07:25 AM 72.3°F22.4°C 58.1°F14.5°C 61% 2.7 mph ESE4.3 kmh ESE 5.8 mph9.3 kmh 30.11 in1019.6 mb 0.00 in0.0 mm 0.00 in0.0 mm 0.00 in0.0 mm
07:23 AM 72.3°F22.4°C 58.6°F14.8°C 62% 2.0 mph E3.2 kmh E 3.6 mph5.8 kmh 30.11 in1019.6 mb 0.00 in0.0 mm 0.00 in0.0 mm 0.00 in0.0 mm
07:20 AM 71.8°F22.1°C 58.1°F14.5°C 62% 1.6 mph E2.6 kmh E 1.6 mph2.6 kmh 30.11 in1019.6 mb 0.00 in0.0 mm 0.00 in0.0 mm 0.00 in0.0 mm
07:18 AM 71.4°F21.9°C 57.7°F14.3°C 62% 1.8 mph ENE2.9 kmh ENE 2.5 mph4.0 kmh 30.11 in1019.6 mb 0.00 in0.0 mm 0.00 in0.0 mm 0.00 in0.0 mm
07:16 AM 71.4°F21.9°C 57.2°F14.0°C 61% 2.0 mph E3.2 kmh E 3.6 mph5.8 kmh 30.11 in1019.6 mb 0.00 in0.0 mm 0.00 in0.0 mm 0.00 in0.0 mm
07:14 AM 71.4°F21.9°C 57.2°F14.0°C 61% 2.5 mph E4.0 kmh E 3.1 mph5.0 kmh 30.11 in1019.6 mb 0.00 in0.0 mm 0.00 in0.0 mm 0.00 in0.0 mm
07:12 AM 71.4°F21.9°C 57.7°F14.3°C 62% 2.5 mph ESE4.0 kmh ESE 4.0 mph6.4 kmh 30.11 in1019.6 mb 0.00 in0.0 mm 0.00 in0.0 mm 0.00 in0.0 mm
07:10 AM 71.4°F21.9°C 57.7°F14.3°C 62% 2.2 mph E3.5 kmh E 4.0 mph6.4 kmh 30.11 in1019.6 mb 0.00 in0.0 mm 0.00 in0.0 mm 0.00 in0.0 mm
07:08 AM 71.4°F21.9°C 57.7°F14.3°C 62% 1.8 mph ENE2.9 kmh ENE 3.4 mph5.5 kmh 30.11 in1019.6 mb 0.00 in0.0 mm 0.00 in0.0 mm 0.00 in0.0 mm
07:06 AM 71.2°F21.8°C 57.9°F14.4°C 63% 1.3 mph ENE2.1 kmh ENE 2.2 mph3.5 kmh 30.11 in1019.6 mb 0.00 in0.0 mm 0.00 in0.0 mm 0.00 in0.0 mm
07:03 AM 71.2°F21.8°C 57.9°F14.4°C 63% 1.3 mph NE2.1 kmh NE 2.2 mph3.5 kmh 30.11 in1019.6 mb 0.00 in0.0 mm 0.00 in0.0 mm 0.00 in0.0 mm
07:01 AM 71.2°F21.8°C 57.6°F14.2°C 62% 1.6 mph NE2.6 kmh NE 3.1 mph5.0 kmh 30.11 in1019.6 mb 0.00 in0.0 mm 0.00 in0.0 mm 0.00 in0.0 mm
06:59 AM 71.4°F21.9°C 58.1°F14.5°C 63% 1.1 mph ESE1.8 kmh ESE 3.6 mph5.8 kmh 30.11 in1019.6 mb 0.00 in0.0 mm 0.00 in0.0 mm 0.00 in0.0 mm
06:57 AM 71.4°F21.9°C 58.1°F14.5°C 63% 0.4 mph E0.6 kmh E 1.6 mph2.6 kmh 30.11 in1019.6 mb 0.00 in0.0 mm 0.00 in0.0 mm 0.00 in0.0 mm
06:55 AM 71.2°F21.8°C 57.9°F14.4°C 63% 0.2 mph ENE0.3 kmh ENE -- 30.11 in1019.6 mb 0.00 in0.0 mm 0.00 in0.0 mm 0.00 in0.0 mm
06:53 AM 70.9°F21.6°C 58.1°F14.5°C 64% 0.4 mph NNW0.6 kmh NNW 2.0 mph3.2 kmh 30.11 in1019.6 mb 0.00 in0.0 mm 0.00 in0.0 mm 0.00 in0.0 mm
06:50 AM 70.5°F21.4°C 57.7°F14.3°C 64% 0.4 mph ENE0.6 kmh ENE 1.8 mph2.9 kmh 30.11 in1019.6 mb 0.00 in0.0 mm 0.00 in0.0 mm 0.00 in0.0 mm
06:48 AM 70.5°F21.4°C 57.7°F14.3°C 64% 0.4 mph 0.6 kmh 0.9 mph1.4 kmh 30.11 in1019.6 mb 0.00 in0.0 mm 0.00 in0.0 mm 0.00 in0.0 mm
06:46 AM 70.3°F21.3°C 58.1°F14.5°C 65% 0.7 mph NNE1.1 kmh NNE 1.8 mph2.9 kmh 30.11 in1019.6 mb 0.00 in0.0 mm 0.00 in0.0 mm 0.00 in0.0 mm
06:44 AM 70.0°F21.1°C 57.7°F14.3°C 65% 1.1 mph ENE1.8 kmh ENE 2.0 mph3.2 kmh 30.11 in1019.6 mb 0.00 in0.0 mm 0.00 in0.0 mm 0.00 in0.0 mm
06:41 AM 70.0°F21.1°C 57.7°F14.3°C 65% 1.3 mph E2.1 kmh E 2.0 mph3.2 kmh 30.11 in1019.6 mb 0.00 in0.0 mm 0.00 in0.0 mm 0.00 in0.0 mm
06:39 AM 69.6°F20.9°C 57.7°F14.3°C 66% 1.1 mph E1.8 kmh E 1.6 mph2.6 kmh 30.11 in1019.6 mb 0.00 in0.0 mm 0.00 in0.0 mm 0.00 in0.0 mm
06:37 AM 69.4°F20.8°C 57.6°F14.2°C 66% 1.3 mph ENE2.1 kmh ENE 2.2 mph3.5 kmh 30.10 in1019.3 mb 0.00 in0.0 mm 0.00 in0.0 mm 0.00 in0.0 mm
06:35 AM 69.1°F20.6°C 57.2°F14.0°C 66% 1.3 mph ENE2.1 kmh ENE 2.2 mph3.5 kmh 30.10 in1019.3 mb 0.00 in0.0 mm 0.00 in0.0 mm 0.00 in0.0 mm
06:33 AM 68.5°F20.3°C 57.2°F14.0°C 67% 1.6 mph ENE2.6 kmh ENE 2.9 mph4.7 kmh 30.11 in1019.6 mb 0.00 in0.0 mm 0.00 in0.0 mm 0.00 in0.0 mm
06:30 AM 68.2°F20.1°C 56.8°F13.8°C 67% 1.8 mph ENE2.9 kmh ENE 1.8 mph2.9 kmh 30.11 in1019.6 mb 0.00 in0.0 mm 0.00 in0.0 mm 0.00 in0.0 mm
06:28 AM 68.0°F20.0°C 56.7°F13.7°C 67% 2.2 mph SSE3.5 kmh SSE 3.1 mph5.0 kmh 30.10 in1019.3 mb 0.00 in0.0 mm 0.00 in0.0 mm 0.00 in0.0 mm
06:26 AM 67.8°F19.9°C 56.5°F13.6°C 67% 2.0 mph E3.2 kmh E 3.1 mph5.0 kmh 30.10 in1019.3 mb 0.00 in0.0 mm 0.00 in0.0 mm 0.00 in0.0 mm
06:23 AM 67.6°F19.8°C 56.3°F13.5°C 67% 1.6 mph ESE2.6 kmh ESE 2.9 mph4.7 kmh 30.10 in1019.3 mb 0.00 in0.0 mm 0.00 in0.0 mm 0.00 in0.0 mm
06:21 AM 67.5°F19.7°C 56.5°F13.6°C 68% 1.1 mph ESE1.8 kmh ESE 2.7 mph4.3 kmh 30.10 in1019.3 mb 0.00 in0.0 mm 0.00 in0.0 mm 0.00 in0.0 mm
06:19 AM 67.3°F19.6°C 56.3°F13.5°C 68% 0.9 mph E1.4 kmh E 1.8 mph2.9 kmh 30.10 in1019.3 mb 0.00 in0.0 mm 0.00 in0.0 mm 0.00 in0.0 mm
06:17 AM 66.9°F19.4°C 55.9°F13.3°C 68% 1.3 mph E2.1 kmh E 2.7 mph4.3 kmh 30.10 in1019.3 mb 0.00 in0.0 mm 0.00 in0.0 mm 0.00 in0.0 mm
06:15 AM 66.7°F19.3°C 55.8°F13.2°C 68% 1.8 mph SE2.9 kmh SE 2.0 mph3.2 kmh 30.10 in1019.3 mb 0.00 in0.0 mm 0.00 in0.0 mm 0.00 in0.0 mm
06:12 AM 66.6°F19.2°C 55.6°F13.1°C 68% 2.2 mph ESE3.5 kmh ESE 2.2 mph3.5 kmh 30.10 in1019.3 mb 0.00 in0.0 mm 0.00 in0.0 mm 0.00 in0.0 mm
06:10 AM 66.2°F19.0°C 55.4°F13.0°C 68% 3.4 mph SE5.5 kmh SE 3.6 mph5.8 kmh 30.10 in1019.3 mb 0.00 in0.0 mm 0.00 in0.0 mm 0.00 in0.0 mm
06:08 AM 66.0°F18.9°C 55.2°F12.9°C 68% 3.8 mph E6.1 kmh E 4.9 mph7.9 kmh 30.10 in1019.3 mb 0.00 in0.0 mm 0.00 in0.0 mm 0.00 in0.0 mm
06:06 AM 65.8°F18.8°C 55.0°F12.8°C 68% 4.3 mph ESE6.9 kmh ESE 4.3 mph6.9 kmh 30.10 in1019.3 mb 0.00 in0.0 mm 0.00 in0.0 mm 0.00 in0.0 mm
06:04 AM 65.7°F18.7°C 54.9°F12.7°C 68% 4.7 mph SE7.6 kmh SE 5.1 mph8.2 kmh 30.10 in1019.3 mb 0.00 in0.0 mm 0.00 in0.0 mm 0.00 in0.0 mm
06:02 AM 65.7°F18.7°C 54.9°F12.7°C 68% 4.7 mph ESE7.6 kmh ESE 5.6 mph9.0 kmh 30.10 in1019.3 mb 0.00 in0.0 mm 0.00 in0.0 mm 0.00 in0.0 mm
05:59 AM 65.5°F18.6°C 54.7°F12.6°C 68% 5.1 mph SE8.2 kmh SE 6.3 mph10.1 kmh 30.10 in1019.3 mb 0.00 in0.0 mm 0.00 in0.0 mm 0.00 in0.0 mm
05:57 AM 65.5°F18.6°C 54.7°F12.6°C 68% 5.1 mph ESE8.2 kmh ESE 5.6 mph9.0 kmh 30.11 in1019.6 mb 0.00 in0.0 mm 0.00 in0.0 mm 0.00 in0.0 mm
05:55 AM 65.5°F18.6°C 54.7°F12.6°C 68% 5.1 mph ESE8.2 kmh ESE 7.2 mph11.6 kmh 30.10 in1019.3 mb 0.00 in0.0 mm 0.00 in0.0 mm 0.00 in0.0 mm
05:52 AM 65.3°F18.5°C 54.5°F12.5°C 68% 4.5 mph SE7.2 kmh SE 5.8 mph9.3 kmh 30.10 in1019.3 mb 0.00 in0.0 mm 0.00 in0.0 mm 0.00 in0.0 mm
05:50 AM 65.3°F18.5°C 54.5°F12.5°C 68% 5.4 mph ESE8.7 kmh ESE 5.8 mph9.3 kmh 30.10 in1019.3 mb 0.00 in0.0 mm 0.00 in0.0 mm 0.00 in0.0 mm
05:48 AM 65.3°F18.5°C 54.5°F12.5°C 68% 5.6 mph SE9.0 kmh SE 6.5 mph10.5 kmh 30.10 in1019.3 mb 0.00 in0.0 mm 0.00 in0.0 mm 0.00 in0.0 mm
05:46 AM 65.1°F18.4°C 54.3°F12.4°C 68% 5.6 mph SE9.0 kmh SE 6.7 mph10.8 kmh 30.10 in1019.3 mb 0.00 in0.0 mm 0.00 in0.0 mm 0.00 in0.0 mm
05:44 AM 65.1°F18.4°C 54.3°F12.4°C 68% 5.6 mph SSE9.0 kmh SSE 6.9 mph11.1 kmh 30.10 in1019.3 mb 0.00 in0.0 mm 0.00 in0.0 mm 0.00 in0.0 mm
05:42 AM 65.1°F18.4°C 54.3°F12.4°C 68% 5.4 mph SE8.7 kmh SE 6.0 mph9.7 kmh 30.10 in1019.3 mb 0.00 in0.0 mm 0.00 in0.0 mm 0.00 in0.0 mm
05:40 AM 65.1°F18.4°C 54.3°F12.4°C 68% 5.6 mph SE9.0 kmh SE 6.5 mph10.5 kmh 30.10 in1019.3 mb 0.00 in0.0 mm 0.00 in0.0 mm 0.00 in0.0 mm
05:38 AM 65.1°F18.4°C 54.0°F12.2°C 67% 5.8 mph ESE9.3 kmh ESE 6.3 mph10.1 kmh 30.10 in1019.3 mb 0.00 in0.0 mm 0.00 in0.0 mm 0.00 in0.0 mm
05:36 AM 65.3°F18.5°C 54.1°F12.3°C 67% 6.0 mph ESE9.7 kmh ESE 7.4 mph11.9 kmh 30.10 in1019.3 mb 0.00 in0.0 mm 0.00 in0.0 mm 0.00 in0.0 mm
05:34 AM 65.3°F18.5°C 54.1°F12.3°C 67% 5.8 mph SE9.3 kmh SE 6.5 mph10.5 kmh 30.10 in1019.3 mb 0.00 in0.0 mm 0.00 in0.0 mm 0.00 in0.0 mm
05:31 AM 65.5°F18.6°C 53.8°F12.1°C 66% 5.8 mph ESE9.3 kmh ESE 6.7 mph10.8 kmh 30.10 in1019.3 mb 0.00 in0.0 mm 0.00 in0.0 mm 0.00 in0.0 mm
05:29 AM 65.7°F18.7°C 54.3°F12.4°C 67% 6.0 mph ESE9.7 kmh ESE 7.4 mph11.9 kmh 30.10 in1019.3 mb 0.00 in0.0 mm 0.00 in0.0 mm 0.00 in0.0 mm
05:27 AM 65.7°F18.7°C 54.3°F12.4°C 67% 5.6 mph E9.0 kmh E 7.2 mph11.6 kmh 30.10 in1019.3 mb 0.00 in0.0 mm 0.00 in0.0 mm 0.00 in0.0 mm
05:24 AM 65.5°F18.6°C 54.3°F12.4°C 67% 5.4 mph ESE8.7 kmh ESE 6.5 mph10.5 kmh 30.10 in1019.3 mb 0.00 in0.0 mm 0.00 in0.0 mm 0.00 in0.0 mm
05:22 AM 65.1°F18.4°C 54.0°F12.2°C 67% 4.7 mph ESE7.6 kmh ESE 5.1 mph8.2 kmh 30.10 in1019.3 mb 0.00 in0.0 mm 0.00 in0.0 mm 0.00 in0.0 mm
05:20 AM 64.9°F18.3°C 53.8°F12.1°C 67% 4.5 mph ESE7.2 kmh ESE 4.9 mph7.9 kmh 30.10 in1019.3 mb 0.00 in0.0 mm 0.00 in0.0 mm 0.00 in0.0 mm
05:18 AM 64.8°F18.2°C 53.6°F12.0°C 67% 4.9 mph E7.9 kmh E 5.6 mph9.0 kmh 30.10 in1019.3 mb 0.00 in0.0 mm 0.00 in0.0 mm 0.00 in0.0 mm
05:16 AM 64.8°F18.2°C 53.6°F12.0°C 67% 4.9 mph ESE7.9 kmh ESE 5.8 mph9.3 kmh 30.10 in1019.3 mb 0.00 in0.0 mm 0.00 in0.0 mm 0.00 in0.0 mm
05:14 AM 64.6°F18.1°C 53.4°F11.9°C 67% 4.9 mph ESE7.9 kmh ESE 5.4 mph8.7 kmh 30.09 in1019.0 mb 0.00 in0.0 mm 0.00 in0.0 mm 0.00 in0.0 mm
05:11 AM 64.8°F18.2°C 53.6°F12.0°C 67% 5.4 mph ESE8.7 kmh ESE 6.0 mph9.7 kmh 30.10 in1019.3 mb 0.00 in0.0 mm 0.00 in0.0 mm 0.00 in0.0 mm
05:09 AM 64.8°F18.2°C 53.1°F11.7°C 66% 5.4 mph ESE8.7 kmh ESE 6.9 mph11.1 kmh 30.09 in1019.0 mb 0.00 in0.0 mm 0.00 in0.0 mm 0.00 in0.0 mm
05:07 AM 64.9°F18.3°C 53.2°F11.8°C 66% 4.5 mph ESE7.2 kmh ESE 5.1 mph8.2 kmh 30.09 in1019.0 mb 0.00 in0.0 mm 0.00 in0.0 mm 0.00 in0.0 mm
05:04 AM 65.1°F18.4°C 53.4°F11.9°C 66% 4.5 mph ESE7.2 kmh ESE 6.5 mph10.5 kmh 30.09 in1019.0 mb 0.00 in0.0 mm 0.00 in0.0 mm 0.00 in0.0 mm
05:02 AM 65.5°F18.6°C 53.4°F11.9°C 65% 4.5 mph ESE7.2 kmh ESE 5.8 mph9.3 kmh 30.09 in1019.0 mb 0.00 in0.0 mm 0.00 in0.0 mm 0.00 in0.0 mm
05:00 AM 65.7°F18.7°C 53.6°F12.0°C 65% 4.5 mph ESE7.2 kmh ESE 4.7 mph7.6 kmh 30.10 in1019.3 mb 0.00 in0.0 mm 0.00 in0.0 mm 0.00 in0.0 mm
04:58 AM 65.8°F18.8°C 53.8°F12.1°C 65% 4.7 mph ESE7.6 kmh ESE 6.0 mph9.7 kmh 30.09 in1019.0 mb 0.00 in0.0 mm 0.00 in0.0 mm 0.00 in0.0 mm
04:56 AM 66.2°F19.0°C 53.6°F12.0°C 64% 4.7 mph ESE7.6 kmh ESE 6.0 mph9.7 kmh 30.10 in1019.3 mb 0.00 in0.0 mm 0.00 in0.0 mm 0.00 in0.0 mm
04:54 AM 66.4°F19.1°C 53.8°F12.1°C 64% 4.0 mph SE6.4 kmh SE 4.9 mph7.9 kmh 30.09 in1019.0 mb 0.00 in0.0 mm 0.00 in0.0 mm 0.00 in0.0 mm
04:51 AM 66.6°F19.2°C 54.0°F12.2°C 64% 3.8 mph SE6.1 kmh SE 6.0 mph9.7 kmh 30.09 in1019.0 mb 0.00 in0.0 mm 0.00 in0.0 mm 0.00 in0.0 mm
04:49 AM 66.6°F19.2°C 54.0°F12.2°C 64% 4.0 mph SE6.4 kmh SE 4.5 mph7.2 kmh 30.09 in1019.0 mb 0.00 in0.0 mm 0.00 in0.0 mm 0.00 in0.0 mm
04:47 AM 66.4°F19.1°C 53.8°F12.1°C 64% 4.0 mph SSE6.4 kmh SSE 5.1 mph8.2 kmh 30.09 in1019.0 mb 0.00 in0.0 mm 0.00 in0.0 mm 0.00 in0.0 mm
04:45 AM 66.4°F19.1°C 53.8°F12.1°C 64% 4.0 mph SE6.4 kmh SE 5.1 mph8.2 kmh 30.09 in1019.0 mb 0.00 in0.0 mm 0.00 in0.0 mm 0.00 in0.0 mm
04:43 AM 66.4°F19.1°C 53.8°F12.1°C 64% 3.8 mph ESE6.1 kmh ESE 5.4 mph8.7 kmh 30.09 in1019.0 mb 0.00 in0.0 mm 0.00 in0.0 mm 0.00 in0.0 mm
04:40 AM 66.2°F19.0°C 53.6°F12.0°C 64% 3.6 mph ESE5.8 kmh ESE 5.1 mph8.2 kmh 30.09 in1019.0 mb 0.00 in0.0 mm 0.00 in0.0 mm 0.00 in0.0 mm
04:38 AM 66.4°F19.1°C 53.8°F12.1°C 64% 3.4 mph SE5.5 kmh SE 4.7 mph7.6 kmh 30.09 in1019.0 mb 0.00 in0.0 mm 0.00 in0.0 mm 0.00 in0.0 mm
04:36 AM 66.4°F19.1°C 53.8°F12.1°C 64% 3.4 mph SE5.5 kmh SE 4.7 mph7.6 kmh 30.09 in1019.0 mb 0.00 in0.0 mm 0.00 in0.0 mm 0.00 in0.0 mm
04:33 AM 66.0°F18.9°C 54.0°F12.2°C 65% 3.4 mph ESE5.5 kmh ESE 3.6 mph5.8 kmh 30.09 in1019.0 mb 0.00 in0.0 mm 0.00 in0.0 mm 0.00 in0.0 mm
04:31 AM 66.0°F18.9°C 54.0°F12.2°C 65% 3.6 mph SE5.8 kmh SE 5.1 mph8.2 kmh 30.09 in1019.0 mb 0.00 in0.0 mm 0.00 in0.0 mm 0.00 in0.0 mm
04:29 AM 65.8°F18.8°C 53.8°F12.1°C 65% 3.6 mph SSE5.8 kmh SSE 4.7 mph7.6 kmh 30.09 in1019.0 mb 0.00 in0.0 mm 0.00 in0.0 mm 0.00 in0.0 mm
04:27 AM 65.8°F18.8°C 53.8°F12.1°C 65% 4.3 mph SE6.9 kmh SE 6.3 mph10.1 kmh 30.09 in1019.0 mb 0.00 in0.0 mm 0.00 in0.0 mm 0.00 in0.0 mm
04:24 AM 65.8°F18.8°C 53.8°F12.1°C 65% 3.8 mph ESE6.1 kmh ESE 5.1 mph8.2 kmh 30.09 in1019.0 mb 0.00 in0.0 mm 0.00 in0.0 mm 0.00 in0.0 mm
04:22 AM 65.8°F18.8°C 53.8°F12.1°C 65% 3.4 mph ESE5.5 kmh ESE 4.5 mph7.2 kmh 30.09 in1019.0 mb 0.00 in0.0 mm 0.00 in0.0 mm 0.00 in0.0 mm
04:20 AM 65.8°F18.8°C 53.8°F12.1°C 65% 3.4 mph SE5.5 kmh SE 3.8 mph6.1 kmh 30.09 in1019.0 mb 0.00 in0.0 mm 0.00 in0.0 mm 0.00 in0.0 mm
04:18 AM 66.0°F18.9°C 53.4°F11.9°C 64% 4.0 mph SE6.4 kmh SE 5.8 mph9.3 kmh 30.09 in1019.0 mb 0.00 in0.0 mm 0.00 in0.0 mm 0.00 in0.0 mm
04:16 AM 66.0°F18.9°C 53.4°F11.9°C 64% 4.5 mph SE7.2 kmh SE 5.8 mph9.3 kmh 30.09 in1019.0 mb 0.00 in0.0 mm 0.00 in0.0 mm 0.00 in0.0 mm
04:14 AM 66.0°F18.9°C 53.4°F11.9°C 64% 4.3 mph SE6.9 kmh SE 5.6 mph9.0 kmh 30.09 in1019.0 mb 0.00 in0.0 mm 0.00 in0.0 mm 0.00 in0.0 mm
04:11 AM 66.0°F18.9°C 53.4°F11.9°C 64% 3.8 mph ESE6.1 kmh ESE 4.7 mph7.6 kmh 30.09 in1019.0 mb 0.00 in0.0 mm 0.00 in0.0 mm 0.00 in0.0 mm
04:09 AM 66.0°F18.9°C 53.4°F11.9°C 64% 3.6 mph ESE5.8 kmh ESE 4.7 mph7.6 kmh 30.09 in1019.0 mb 0.00 in0.0 mm 0.00 in0.0 mm 0.00 in0.0 mm
04:07 AM 66.0°F18.9°C 53.4°F11.9°C 64% 3.6 mph SE5.8 kmh SE 4.3 mph6.9 kmh 30.09 in1019.0 mb 0.00 in0.0 mm 0.00 in0.0 mm 0.00 in0.0 mm
04:05 AM 66.0°F18.9°C 53.4°F11.9°C 64% 3.8 mph SE6.1 kmh SE 5.1 mph8.2 kmh 30.09 in1019.0 mb 0.00 in0.0 mm 0.00 in0.0 mm 0.00 in0.0 mm
04:02 AM 66.0°F18.9°C 53.4°F11.9°C 64% 3.4 mph SE5.5 kmh SE 3.8 mph6.1 kmh 30.09 in1019.0 mb 0.00 in0.0 mm 0.00 in0.0 mm 0.00 in0.0 mm
04:00 AM 66.0°F18.9°C 53.4°F11.9°C 64% 3.6 mph SE5.8 kmh SE 4.9 mph7.9 kmh 30.09 in1019.0 mb 0.00 in0.0 mm 0.00 in0.0 mm 0.00 in0.0 mm
03:58 AM 66.0°F18.9°C 53.4°F11.9°C 64% 3.8 mph SSE6.1 kmh SSE 4.0 mph6.4 kmh 30.09 in1019.0 mb 0.00 in0.0 mm 0.00 in0.0 mm 0.00 in0.0 mm
03:56 AM 66.2°F19.0°C 53.6°F12.0°C 64% 4.3 mph SE6.9 kmh SE 6.0 mph9.7 kmh 30.09 in1019.0 mb 0.00 in0.0 mm 0.00 in0.0 mm 0.00 in0.0 mm
03:53 AM 66.2°F19.0°C 53.6°F12.0°C 64% 4.3 mph ESE6.9 kmh ESE 5.4 mph8.7 kmh 30.09 in1019.0 mb 0.00 in0.0 mm 0.00 in0.0 mm 0.00 in0.0 mm
03:51 AM 66.0°F18.9°C 53.4°F11.9°C 64% 4.3 mph SE6.9 kmh SE 4.9 mph7.9 kmh 30.09 in1019.0 mb 0.00 in0.0 mm 0.00 in0.0 mm 0.00 in0.0 mm
03:49 AM 66.0°F18.9°C 53.4°F11.9°C 64% 4.7 mph ESE7.6 kmh ESE 6.3 mph10.1 kmh 30.09 in1019.0 mb 0.00 in0.0 mm 0.00 in0.0 mm 0.00 in0.0 mm
03:47 AM 66.0°F18.9°C 53.4°F11.9°C 64% 4.3 mph ESE6.9 kmh ESE 5.1 mph8.2 kmh 30.09 in1019.0 mb 0.00 in0.0 mm 0.00 in0.0 mm 0.00 in0.0 mm
03:45 AM 66.0°F18.9°C 53.4°F11.9°C 64% 4.0 mph SSE6.4 kmh SSE 4.7 mph7.6 kmh 30.09 in1019.0 mb 0.00 in0.0 mm 0.00 in0.0 mm 0.00 in0.0 mm
03:42 AM 66.0°F18.9°C 53.4°F11.9°C 64% 4.7 mph ESE7.6 kmh ESE 6.5 mph10.5 kmh 30.09 in1019.0 mb 0.00 in0.0 mm 0.00 in0.0 mm 0.00 in0.0 mm
03:40 AM 66.0°F18.9°C 53.4°F11.9°C 64% 5.1 mph SE8.2 kmh SE 6.9 mph11.1 kmh 30.09 in1019.0 mb 0.00 in0.0 mm 0.00 in0.0 mm 0.00 in0.0 mm
03:38 AM 65.8°F18.8°C 53.8°F12.1°C 65% 5.1 mph SE8.2 kmh SE 6.7 mph10.8 kmh 30.09 in1019.0 mb 0.00 in0.0 mm 0.00 in0.0 mm 0.00 in0.0 mm
03:36 AM 66.0°F18.9°C 53.4°F11.9°C 64% 5.1 mph SE8.2 kmh SE 6.5 mph10.5 kmh 30.09 in1019.0 mb 0.00 in0.0 mm 0.00 in0.0 mm 0.00 in0.0 mm
03:34 AM 65.8°F18.8°C 53.2°F11.8°C 64% 4.5 mph SE7.2 kmh SE 6.9 mph11.1 kmh 30.09 in1019.0 mb 0.00 in0.0 mm 0.00 in0.0 mm 0.00 in0.0 mm
03:31 AM 65.8°F18.8°C 53.2°F11.8°C 64% 3.8 mph ESE6.1 kmh ESE 6.7 mph10.8 kmh 30.09 in1019.0 mb 0.00 in0.0 mm 0.00 in0.0 mm 0.00 in0.0 mm
03:29 AM 65.8°F18.8°C 53.2°F11.8°C 64% 3.1 mph SE5.0 kmh SE 3.8 mph6.1 kmh 30.09 in1019.0 mb 0.00 in0.0 mm 0.00 in0.0 mm 0.00 in0.0 mm
03:27 AM 66.0°F18.9°C 53.4°F11.9°C 64% 2.9 mph SSE4.7 kmh SSE 6.3 mph10.1 kmh 30.09 in1019.0 mb 0.00 in0.0 mm 0.00 in0.0 mm 0.00 in0.0 mm
03:25 AM 66.0°F18.9°C 53.4°F11.9°C 64% 2.7 mph S4.3 kmh S 3.6 mph5.8 kmh 30.09 in1019.0 mb 0.00 in0.0 mm 0.00 in0.0 mm 0.00 in0.0 mm
03:23 AM 66.0°F18.9°C 53.4°F11.9°C 64% 2.5 mph SE4.0 kmh SE 3.1 mph5.0 kmh 30.09 in1019.0 mb 0.00 in0.0 mm 0.00 in0.0 mm 0.00 in0.0 mm
03:20 AM 65.8°F18.8°C 53.2°F11.8°C 64% 2.2 mph SSE3.5 kmh SSE 2.2 mph3.5 kmh 30.09 in1019.0 mb 0.00 in0.0 mm 0.00 in0.0 mm 0.00 in0.0 mm
03:18 AM 65.8°F18.8°C 53.2°F11.8°C 64% 2.7 mph SSE4.3 kmh SSE 2.9 mph4.7 kmh 30.09 in1019.0 mb 0.00 in0.0 mm 0.00 in0.0 mm 0.00 in0.0 mm
03:16 AM 65.5°F18.6°C 53.4°F11.9°C 65% 3.1 mph ESE5.0 kmh ESE 3.8 mph6.1 kmh 30.09 in1019.0 mb 0.00 in0.0 mm 0.00 in0.0 mm 0.00 in0.0 mm
03:14 AM 65.5°F18.6°C 53.1°F11.7°C 64% 2.9 mph SE4.7 kmh SE 3.4 mph5.5 kmh 30.09 in1019.0 mb 0.00 in0.0 mm 0.00 in0.0 mm 0.00 in0.0 mm
03:11 AM 65.7°F18.7°C 53.2°F11.8°C 64% 2.9 mph SE4.7 kmh SE 3.6 mph5.8 kmh 30.09 in1019.0 mb 0.00 in0.0 mm 0.00 in0.0 mm 0.00 in0.0 mm
03:09 AM 66.0°F18.9°C 53.4°F11.9°C 64% 3.1 mph SE5.0 kmh SE 4.9 mph7.9 kmh 30.09 in1019.0 mb 0.00 in0.0 mm 0.00 in0.0 mm 0.00 in0.0 mm
03:07 AM 66.0°F18.9°C 53.4°F11.9°C 64% 2.9 mph SSE4.7 kmh SSE 3.8 mph6.1 kmh 30.09 in1019.0 mb 0.00 in0.0 mm 0.00 in0.0 mm 0.00 in0.0 mm
03:05 AM 65.8°F18.8°C 53.2°F11.8°C 64% 2.9 mph SE4.7 kmh SE 3.8 mph6.1 kmh 30.09 in1019.0 mb 0.00 in0.0 mm 0.00 in0.0 mm 0.00 in0.0 mm
03:03 AM 65.8°F18.8°C 53.2°F11.8°C 64% 2.7 mph SE4.3 kmh SE 3.8 mph6.1 kmh 30.09 in1019.0 mb 0.00 in0.0 mm 0.00 in0.0 mm 0.00 in0.0 mm
03:01 AM 65.8°F18.8°C 53.2°F11.8°C 64% 2.7 mph SE4.3 kmh SE 4.0 mph6.4 kmh 30.09 in1019.0 mb 0.00 in0.0 mm 0.00 in0.0 mm 0.00 in0.0 mm
02:59 AM 65.7°F18.7°C 53.2°F11.8°C 64% 2.0 mph SE3.2 kmh SE 2.7 mph4.3 kmh 30.09 in1019.0 mb 0.00 in0.0 mm 0.00 in0.0 mm 0.00 in0.0 mm
02:56 AM 65.8°F18.8°C 53.2°F11.8°C 64% 2.0 mph SSE3.2 kmh SSE 2.7 mph4.3 kmh 30.09 in1019.0 mb 0.00 in0.0 mm 0.00 in0.0 mm 0.00 in0.0 mm
02:54 AM 66.0°F18.9°C 53.4°F11.9°C 64% 2.0 mph SE3.2 kmh SE 2.2 mph3.5 kmh 30.09 in1019.0 mb 0.00 in0.0 mm 0.00 in0.0 mm 0.00 in0.0 mm
02:52 AM 65.8°F18.8°C 53.8°F12.1°C 65% 2.0 mph SSE3.2 kmh SSE 2.2 mph3.5 kmh 30.09 in1019.0 mb 0.00 in0.0 mm 0.00 in0.0 mm 0.00 in0.0 mm
02:50 AM 65.7°F18.7°C 53.6°F12.0°C 65% 2.2 mph SSE3.5 kmh SSE 2.2 mph3.5 kmh 30.10 in1019.3 mb 0.00 in0.0 mm 0.00 in0.0 mm 0.00 in0.0 mm
02:48 AM 65.5°F18.6°C 53.4°F11.9°C 65% 2.9 mph SE4.7 kmh SE 4.3 mph6.9 kmh 30.09 in1019.0 mb 0.00 in0.0 mm 0.00 in0.0 mm 0.00 in0.0 mm
02:46 AM 65.5°F18.6°C 53.4°F11.9°C 65% 2.9 mph ESE4.7 kmh ESE 3.6 mph5.8 kmh 30.09 in1019.0 mb 0.00 in0.0 mm 0.00 in0.0 mm 0.00 in0.0 mm
02:43 AM 65.5°F18.6°C 53.4°F11.9°C 65% 2.9 mph SSE4.7 kmh SSE 4.7 mph7.6 kmh 30.09 in1019.0 mb 0.00 in0.0 mm 0.00 in0.0 mm 0.00 in0.0 mm
02:41 AM 65.1°F18.4°C 53.1°F11.7°C 65% 2.7 mph SSE4.3 kmh SSE 3.8 mph6.1 kmh 30.09 in1019.0 mb 0.00 in0.0 mm 0.00 in0.0 mm 0.00 in0.0 mm
02:39 AM 65.1°F18.4°C 53.1°F11.7°C 65% 2.2 mph SE3.5 kmh SE 2.2 mph3.5 kmh 30.09 in1019.0 mb 0.00 in0.0 mm 0.00 in0.0 mm 0.00 in0.0 mm
02:37 AM 65.1°F18.4°C 53.1°F11.7°C 65% 2.5 mph SSE4.0 kmh SSE 3.6 mph5.8 kmh 30.10 in1019.3 mb 0.00 in0.0 mm 0.00 in0.0 mm 0.00 in0.0 mm
02:34 AM 65.3°F18.5°C 53.2°F11.8°C 65% 2.7 mph SSE4.3 kmh SSE 2.7 mph4.3 kmh 30.10 in1019.3 mb 0.00 in0.0 mm 0.00 in0.0 mm 0.00 in0.0 mm
02:32 AM 65.1°F18.4°C 53.1°F11.7°C 65% 3.1 mph ESE5.0 kmh ESE 3.8 mph6.1 kmh 30.10 in1019.3 mb 0.00 in0.0 mm 0.00 in0.0 mm 0.00 in0.0 mm
02:30 AM 65.1°F18.4°C 53.1°F11.7°C 65% 2.7 mph ESE4.3 kmh ESE 4.0 mph6.4 kmh 30.09 in1019.0 mb 0.00 in0.0 mm 0.00 in0.0 mm 0.00 in0.0 mm
02:28 AM 65.1°F18.4°C 53.1°F11.7°C 65% 2.7 mph SE4.3 kmh SE 3.1 mph5.0 kmh 30.09 in1019.0 mb 0.00 in0.0 mm 0.00 in0.0 mm 0.00 in0.0 mm
02:25 AM 65.1°F18.4°C 53.1°F11.7°C 65% 2.7 mph SE4.3 kmh SE 4.0 mph6.4 kmh 30.10 in1019.3 mb 0.00 in0.0 mm 0.00 in0.0 mm 0.00 in0.0 mm
02:23 AM 65.1°F18.4°C 53.4°F11.9°C 66% 2.5 mph SSE4.0 kmh SSE 3.4 mph5.5 kmh 30.09 in1019.0 mb 0.00 in0.0 mm 0.00 in0.0 mm 0.00 in0.0 mm
02:21 AM 64.9°F18.3°C 53.2°F11.8°C 66% 2.9 mph S4.7 kmh S 2.5 mph4.0 kmh 30.09 in1019.0 mb 0.00 in0.0 mm 0.00 in0.0 mm 0.00 in0.0 mm
02:19 AM 64.8°F18.2°C 53.1°F11.7°C 66% 3.8 mph S6.1 kmh S 5.4 mph8.7 kmh 30.09 in1019.0 mb 0.00 in0.0 mm 0.00 in0.0 mm 0.00 in0.0 mm
02:16 AM 65.1°F18.4°C 53.1°F11.7°C 65% 4.5 mph ESE7.2 kmh ESE 8.3 mph13.4 kmh 30.10 in1019.3 mb 0.00 in0.0 mm 0.00 in0.0 mm 0.00 in0.0 mm
02:14 AM 65.3°F18.5°C 52.9°F11.6°C 64% 2.2 mph SSE3.5 kmh SSE 2.7 mph4.3 kmh 30.09 in1019.0 mb 0.00 in0.0 mm 0.00 in0.0 mm 0.00 in0.0 mm
02:12 AM 65.5°F18.6°C 53.1°F11.7°C 64% 2.5 mph SSE4.0 kmh SSE 3.8 mph6.1 kmh 30.09 in1019.0 mb 0.00 in0.0 mm 0.00 in0.0 mm 0.00 in0.0 mm
02:09 AM 65.7°F18.7°C 53.2°F11.8°C 64% 2.5 mph SSE4.0 kmh SSE 3.8 mph6.1 kmh 30.09 in1019.0 mb 0.00 in0.0 mm 0.00 in0.0 mm 0.00 in0.0 mm
02:07 AM 65.7°F18.7°C 53.2°F11.8°C 64% 2.5 mph SSE4.0 kmh SSE 4.3 mph6.9 kmh 30.10 in1019.3 mb 0.00 in0.0 mm 0.00 in0.0 mm 0.00 in0.0 mm
02:05 AM 65.5°F18.6°C 53.1°F11.7°C 64% 2.0 mph S3.2 kmh S 4.0 mph6.4 kmh 30.10 in1019.3 mb 0.00 in0.0 mm 0.00 in0.0 mm 0.00 in0.0 mm
02:03 AM 65.5°F18.6°C 53.1°F11.7°C 64% 3.1 mph SSE5.0 kmh SSE -- 30.09 in1019.0 mb 0.00 in0.0 mm 0.00 in0.0 mm 0.00 in0.0 mm
01:58 AM 65.3°F18.5°C 52.9°F11.6°C 64% 3.4 mph SSE5.5 kmh SSE 5.6 mph9.0 kmh 30.10 in1019.3 mb 0.00 in0.0 mm 0.00 in0.0 mm 0.00 in0.0 mm
01:56 AM 65.5°F18.6°C 53.1°F11.7°C 64% 2.7 mph SE4.3 kmh SE 2.9 mph4.7 kmh 30.09 in1019.0 mb 0.00 in0.0 mm 0.00 in0.0 mm 0.00 in0.0 mm
01:53 AM 65.8°F18.8°C 52.9°F11.6°C 63% 3.1 mph SE5.0 kmh SE 4.9 mph7.9 kmh 30.10 in1019.3 mb 0.00 in0.0 mm 0.00 in0.0 mm 0.00 in0.0 mm
01:51 AM 66.0°F18.9°C 53.1°F11.7°C 63% 2.7 mph SSE4.3 kmh SSE 3.8 mph6.1 kmh 30.09 in1019.0 mb 0.00 in0.0 mm 0.00 in0.0 mm 0.00 in0.0 mm
01:49 AM 66.2°F19.0°C 53.2°F11.8°C 63% 2.2 mph SSE3.5 kmh SSE 2.9 mph4.7 kmh 30.09 in1019.0 mb 0.00 in0.0 mm 0.00 in0.0 mm 0.00 in0.0 mm
01:47 AM 66.0°F18.9°C 53.1°F11.7°C 63% 2.5 mph SE4.0 kmh SE 4.3 mph6.9 kmh 30.09 in1019.0 mb 0.00 in0.0 mm 0.00 in0.0 mm 0.00 in0.0 mm
01:45 AM 66.2°F19.0°C 53.2°F11.8°C 63% 2.2 mph SE3.5 kmh SE 3.6 mph5.8 kmh 30.09 in1019.0 mb 0.00 in0.0 mm 0.00 in0.0 mm 0.00 in0.0 mm
01:43 AM 66.0°F18.9°C 53.1°F11.7°C 63% 2.0 mph SSE3.2 kmh SSE 2.7 mph4.3 kmh 30.09 in1019.0 mb 0.00 in0.0 mm 0.00 in0.0 mm 0.00 in0.0 mm
01:41 AM 66.0°F18.9°C 53.1°F11.7°C 63% 2.2 mph SSE3.5 kmh SSE 2.5 mph4.0 kmh 30.10 in1019.3 mb 0.00 in0.0 mm 0.00 in0.0 mm 0.00 in0.0 mm
01:38 AM 66.0°F18.9°C 53.1°F11.7°C 63% 2.7 mph S4.3 kmh S 3.1 mph5.0 kmh 30.10 in1019.3 mb 0.00 in0.0 mm 0.00 in0.0 mm 0.00 in0.0 mm
01:36 AM 66.4°F19.1°C 52.9°F11.6°C 62% 2.9 mph ESE4.7 kmh ESE 3.4 mph5.5 kmh 30.10 in1019.3 mb 0.00 in0.0 mm 0.00 in0.0 mm 0.00 in0.0 mm
01:34 AM 66.4°F19.1°C 52.9°F11.6°C 62% 2.9 mph SSE4.7 kmh SSE 4.5 mph7.2 kmh 30.10 in1019.3 mb 0.00 in0.0 mm 0.00 in0.0 mm 0.00 in0.0 mm
01:31 AM 66.4°F19.1°C 52.9°F11.6°C 62% 2.9 mph SSE4.7 kmh SSE 3.8 mph6.1 kmh 30.10 in1019.3 mb 0.00 in0.0 mm 0.00 in0.0 mm 0.00 in0.0 mm
01:29 AM 66.4°F19.1°C 52.9°F11.6°C 62% 3.1 mph SE5.0 kmh SE 3.1 mph5.0 kmh 30.10 in1019.3 mb 0.00 in0.0 mm 0.00 in0.0 mm 0.00 in0.0 mm
01:27 AM 66.6°F19.2°C 53.1°F11.7°C 62% 3.8 mph SSE6.1 kmh SSE 4.7 mph7.6 kmh 30.10 in1019.3 mb 0.00 in0.0 mm 0.00 in0.0 mm 0.00 in0.0 mm
01:25 AM 66.6°F19.2°C 53.1°F11.7°C 62% 4.0 mph SE6.4 kmh SE 5.4 mph8.7 kmh 30.10 in1019.3 mb 0.00 in0.0 mm 0.00 in0.0 mm 0.00 in0.0 mm
01:22 AM 66.6°F19.2°C 53.1°F11.7°C 62% 4.0 mph SE6.4 kmh SE 5.4 mph8.7 kmh 30.10 in1019.3 mb 0.00 in0.0 mm 0.00 in0.0 mm 0.00 in0.0 mm
01:20 AM 66.4°F19.1°C 53.4°F11.9°C 63% 3.8 mph SE6.1 kmh SE 5.4 mph8.7 kmh 30.09 in1019.0 mb 0.00 in0.0 mm 0.00 in0.0 mm 0.00 in0.0 mm
01:18 AM 66.2°F19.0°C 53.2°F11.8°C 63% 3.8 mph ESE6.1 kmh ESE 4.9 mph7.9 kmh 30.09 in1019.0 mb 0.00 in0.0 mm 0.00 in0.0 mm 0.00 in0.0 mm
01:16 AM 66.0°F18.9°C 53.1°F11.7°C 63% 3.8 mph SE6.1 kmh SE 3.1 mph5.0 kmh 30.10 in1019.3 mb 0.00 in0.0 mm 0.00 in0.0 mm 0.00 in0.0 mm
01:14 AM 66.0°F18.9°C 53.4°F11.9°C 64% 4.9 mph SSE7.9 kmh SSE 5.1 mph8.2 kmh 30.10 in1019.3 mb 0.00 in0.0 mm 0.00 in0.0 mm 0.00 in0.0 mm
01:11 AM 65.5°F18.6°C 53.1°F11.7°C 64% 5.1 mph SE8.2 kmh SE 5.4 mph8.7 kmh 30.10 in1019.3 mb 0.00 in0.0 mm 0.00 in0.0 mm 0.00 in0.0 mm
01:09 AM 65.1°F18.4°C 53.1°F11.7°C 65% 5.8 mph SE9.3 kmh SE 6.3 mph10.1 kmh 30.09 in1019.0 mb 0.00 in0.0 mm 0.00 in0.0 mm 0.00 in0.0 mm
01:07 AM 65.3°F18.5°C 53.2°F11.8°C 65% 6.0 mph SE9.7 kmh SE 6.5 mph10.5 kmh 30.09 in1019.0 mb 0.00 in0.0 mm 0.00 in0.0 mm 0.00 in0.0 mm
01:05 AM 65.3°F18.5°C 53.2°F11.8°C 65% 6.3 mph SE10.1 kmh SE 6.5 mph10.5 kmh 30.10 in1019.3 mb 0.00 in0.0 mm 0.00 in0.0 mm 0.00 in0.0 mm
01:03 AM 65.5°F18.6°C 53.4°F11.9°C 65% 6.3 mph SE10.1 kmh SE 8.1 mph13.0 kmh 30.10 in1019.3 mb 0.00 in0.0 mm 0.00 in0.0 mm 0.00 in0.0 mm
01:01 AM 65.5°F18.6°C 53.4°F11.9°C 65% 6.0 mph SE9.7 kmh SE 6.9 mph11.1 kmh 30.09 in1019.0 mb 0.00 in0.0 mm 0.00 in0.0 mm 0.00 in0.0 mm
12:59 AM 65.7°F18.7°C 53.6°F12.0°C 65% 5.8 mph ESE9.3 kmh ESE 6.9 mph11.1 kmh 30.10 in1019.3 mb 0.00 in0.0 mm 0.00 in0.0 mm 0.00 in0.0 mm
12:56 AM 65.8°F18.8°C 53.2°F11.8°C 64% 5.6 mph ESE9.0 kmh ESE 7.4 mph11.9 kmh 30.10 in1019.3 mb 0.00 in0.0 mm 0.00 in0.0 mm 0.00 in0.0 mm
12:54 AM 65.8°F18.8°C 53.2°F11.8°C 64% 5.4 mph SE8.7 kmh SE 6.7 mph10.8 kmh 30.10 in1019.3 mb 0.00 in0.0 mm 0.00 in0.0 mm 0.00 in0.0 mm
12:52 AM 65.8°F18.8°C 53.2°F11.8°C 64% 5.1 mph ESE8.2 kmh ESE 6.3 mph10.1 kmh 30.10 in1019.3 mb 0.00 in0.0 mm 0.00 in0.0 mm 0.00 in0.0 mm
12:50 AM 65.8°F18.8°C 52.9°F11.6°C 63% 5.1 mph ESE8.2 kmh ESE 6.7 mph10.8 kmh 30.10 in1019.3 mb 0.00 in0.0 mm 0.00 in0.0 mm 0.00 in0.0 mm
12:48 AM 65.8°F18.8°C 52.9°F11.6°C 63% 4.9 mph ESE7.9 kmh ESE 6.0 mph9.7 kmh 30.09 in1019.0 mb 0.00 in0.0 mm 0.00 in0.0 mm 0.00 in0.0 mm
12:45 AM 65.8°F18.8°C 52.9°F11.6°C 63% 4.7 mph SE7.6 kmh SE 5.1 mph8.2 kmh 30.10 in1019.3 mb 0.00 in0.0 mm 0.00 in0.0 mm 0.00 in0.0 mm
12:43 AM 66.0°F18.9°C 53.1°F11.7°C 63% 5.4 mph SE8.7 kmh SE 6.5 mph10.5 kmh 30.10 in1019.3 mb 0.00 in0.0 mm 0.00 in0.0 mm 0.00 in0.0 mm
12:41 AM 66.0°F18.9°C 53.1°F11.7°C 63% 5.1 mph SE8.2 kmh SE 6.5 mph10.5 kmh 30.10 in1019.3 mb 0.00 in0.0 mm 0.00 in0.0 mm 0.00 in0.0 mm
12:39 AM 66.0°F18.9°C 53.1°F11.7°C 63% 4.9 mph ESE7.9 kmh ESE 5.8 mph9.3 kmh 30.10 in1019.3 mb 0.00 in0.0 mm 0.00 in0.0 mm 0.00 in0.0 mm
12:36 AM 66.2°F19.0°C 52.9°F11.6°C 62% 4.5 mph SSE7.2 kmh SSE 5.4 mph8.7 kmh 30.10 in1019.3 mb 0.00 in0.0 mm 0.00 in0.0 mm 0.00 in0.0 mm
12:34 AM 66.4°F19.1°C 52.9°F11.6°C 62% 5.1 mph SSE8.2 kmh SSE 6.3 mph10.1 kmh 30.10 in1019.3 mb 0.00 in0.0 mm 0.00 in0.0 mm 0.00 in0.0 mm
12:32 AM 66.7°F19.3°C 53.2°F11.8°C 62% 5.6 mph ESE9.0 kmh ESE 6.7 mph10.8 kmh 30.10 in1019.3 mb 0.00 in0.0 mm 0.00 in0.0 mm 0.00 in0.0 mm
12:30 AM 66.7°F19.3°C 52.9°F11.6°C 61% 5.6 mph ESE9.0 kmh ESE 7.2 mph11.6 kmh 30.10 in1019.3 mb 0.00 in0.0 mm 0.00 in0.0 mm 0.00 in0.0 mm
12:27 AM 66.9°F19.4°C 53.1°F11.7°C 61% 4.5 mph ESE7.2 kmh ESE 5.8 mph9.3 kmh 30.10 in1019.3 mb 0.00 in0.0 mm 0.00 in0.0 mm 0.00 in0.0 mm
12:25 AM 67.1°F19.5°C 52.7°F11.5°C 60% 5.1 mph SE8.2 kmh SE 6.3 mph10.1 kmh 30.10 in1019.3 mb 0.00 in0.0 mm 0.00 in0.0 mm 0.00 in0.0 mm
12:23 AM 67.3°F19.6°C 52.9°F11.6°C 60% 5.4 mph ESE8.7 kmh ESE 6.3 mph10.1 kmh 30.10 in1019.3 mb 0.00 in0.0 mm 0.00 in0.0 mm 0.00 in0.0 mm
12:21 AM 67.6°F19.8°C 53.2°F11.8°C 60% 4.9 mph ESE7.9 kmh ESE 5.4 mph8.7 kmh 30.10 in1019.3 mb 0.00 in0.0 mm 0.00 in0.0 mm 0.00 in0.0 mm
12:18 AM 67.6°F19.8°C 53.2°F11.8°C 60% 5.1 mph SE8.2 kmh SE 6.3 mph10.1 kmh 30.10 in1019.3 mb 0.00 in0.0 mm 0.00 in0.0 mm 0.00 in0.0 mm
12:16 AM 67.6°F19.8°C 53.2°F11.8°C 60% 5.1 mph SE8.2 kmh SE 6.0 mph9.7 kmh 30.10 in1019.3 mb 0.00 in0.0 mm 0.00 in0.0 mm 0.00 in0.0 mm
12:14 AM 67.5°F19.7°C 53.1°F11.7°C 60% 5.4 mph SE8.7 kmh SE 6.7 mph10.8 kmh 30.10 in1019.3 mb 0.00 in0.0 mm 0.00 in0.0 mm 0.00 in0.0 mm
12:12 AM 67.5°F19.7°C 53.1°F11.7°C 60% 4.9 mph SE7.9 kmh SE 6.9 mph11.1 kmh 30.10 in1019.3 mb 0.00 in0.0 mm 0.00 in0.0 mm 0.00 in0.0 mm
12:10 AM 67.3°F19.6°C 52.9°F11.6°C 60% 4.9 mph ESE7.9 kmh ESE 6.5 mph10.5 kmh 30.10 in1019.3 mb 0.00 in0.0 mm 0.00 in0.0 mm 0.00 in0.0 mm
12:08 AM 67.3°F19.6°C 52.9°F11.6°C 60% 4.7 mph SE7.6 kmh SE 5.4 mph8.7 kmh 30.10 in1019.3 mb 0.00 in0.0 mm 0.00 in0.0 mm 0.00 in0.0 mm
12:06 AM 67.3°F19.6°C 52.9°F11.6°C 60% 5.4 mph SE8.7 kmh SE 5.4 mph8.7 kmh 30.10 in1019.3 mb 0.00 in0.0 mm 0.00 in0.0 mm 0.00 in0.0 mm
12:04 AM 67.3°F19.6°C 52.9°F11.6°C 60% 5.4 mph SE8.7 kmh SE 6.0 mph9.7 kmh 30.10 in1019.3 mb 0.00 in0.0 mm 0.00 in0.0 mm 0.00 in0.0 mm
12:01 AM 67.3°F19.6°C 52.9°F11.6°C 60% 5.8 mph ESE9.3 kmh ESE 6.3 mph10.1 kmh 30.10 in1019.3 mb 0.00 in0.0 mm 0.00 in0.0 mm 0.00 in0.0 mm